sensor_id;sensor_type;location;lat;lon;timestamp;P1;durP1;ratioP1;P2;durP2;ratioP2
81176;SDS011;74095;48.270;14.200;2024-03-23T00:53:57;15.15;;;11.77;;
81176;SDS011;74095;48.270;14.200;2024-03-23T00:56:23;13.02;;;10.52;;
81176;SDS011;74095;48.270;14.200;2024-03-23T00:58:49;14.77;;;12.00;;
81176;SDS011;74095;48.270;14.200;2024-03-23T01:01:15;16.98;;;13.57;;
81176;SDS011;74095;48.270;14.200;2024-03-23T01:03:41;13.85;;;10.88;;
81176;SDS011;74095;48.270;14.200;2024-03-23T01:06:07;14.27;;;12.07;;
81176;SDS011;74095;48.270;14.200;2024-03-23T01:08:33;16.30;;;13.05;;
81176;SDS011;74095;48.270;14.200;2024-03-23T01:10:59;13.88;;;11.00;;
81176;SDS011;74095;48.270;14.200;2024-03-23T01:13:26;17.23;;;12.20;;
81176;SDS011;74095;48.270;14.200;2024-03-23T01:15:53;16.27;;;12.02;;
81176;SDS011;74095;48.270;14.200;2024-03-23T01:18:20;17.65;;;11.85;;
81176;SDS011;74095;48.270;14.200;2024-03-23T01:20:47;18.60;;;12.52;;
81176;SDS011;74095;48.270;14.200;2024-03-23T01:23:13;28.75;;;18.77;;
81176;SDS011;74095;48.270;14.200;2024-03-23T01:25:39;32.22;;;21.08;;
81176;SDS011;74095;48.270;14.200;2024-03-23T01:28:06;16.58;;;12.32;;
81176;SDS011;74095;48.270;14.200;2024-03-23T01:30:32;16.83;;;12.55;;
81176;SDS011;74095;48.270;14.200;2024-03-23T01:32:59;16.40;;;12.73;;
81176;SDS011;74095;48.270;14.200;2024-03-23T01:35:25;18.13;;;13.05;;
81176;SDS011;74095;48.270;14.200;2024-03-23T01:37:51;15.93;;;12.20;;
81176;SDS011;74095;48.270;14.200;2024-03-23T01:40:17;16.38;;;12.35;;
81176;SDS011;74095;48.270;14.200;2024-03-23T01:42:43;18.58;;;12.65;;
81176;SDS011;74095;48.270;14.200;2024-03-23T01:45:20;16.35;;;12.73;;
81176;SDS011;74095;48.270;14.200;2024-03-23T01:47:46;19.25;;;13.18;;
81176;SDS011;74095;48.270;14.200;2024-03-23T01:50:13;16.38;;;11.63;;
81176;SDS011;74095;48.270;14.200;2024-03-23T01:52:39;15.40;;;12.57;;
81176;SDS011;74095;48.270;14.200;2024-03-23T01:55:05;19.55;;;14.75;;
81176;SDS011;74095;48.270;14.200;2024-03-23T01:57:31;17.92;;;14.45;;
81176;SDS011;74095;48.270;14.200;2024-03-23T01:59:57;17.63;;;14.45;;
81176;SDS011;74095;48.270;14.200;2024-03-23T02:02:23;16.52;;;12.90;;
81176;SDS011;74095;48.270;14.200;2024-03-23T02:04:49;16.85;;;12.98;;
81176;SDS011;74095;48.270;14.200;2024-03-23T02:07:15;19.58;;;13.98;;
81176;SDS011;74095;48.270;14.200;2024-03-23T02:09:40;19.08;;;14.18;;
81176;SDS011;74095;48.270;14.200;2024-03-23T02:12:06;17.23;;;13.25;;
81176;SDS011;74095;48.270;14.200;2024-03-23T02:14:33;14.48;;;11.43;;
81176;SDS011;74095;48.270;14.200;2024-03-23T02:16:58;16.52;;;12.63;;
81176;SDS011;74095;48.270;14.200;2024-03-23T02:19:24;16.17;;;12.30;;
81176;SDS011;74095;48.270;14.200;2024-03-23T02:21:50;16.98;;;12.48;;
81176;SDS011;74095;48.270;14.200;2024-03-23T02:24:16;15.32;;;12.52;;
81176;SDS011;74095;48.270;14.200;2024-03-23T02:26:42;17.42;;;13.52;;
81176;SDS011;74095;48.270;14.200;2024-03-23T02:29:08;14.65;;;10.55;;
81176;SDS011;74095;48.270;14.200;2024-03-23T02:31:35;13.68;;;11.00;;
81176;SDS011;74095;48.270;14.200;2024-03-23T02:34:01;13.50;;;10.32;;
81176;SDS011;74095;48.270;14.200;2024-03-23T02:36:28;15.90;;;11.20;;
81176;SDS011;74095;48.270;14.200;2024-03-23T02:38:54;13.85;;;11.27;;
81176;SDS011;74095;48.270;14.200;2024-03-23T02:41:19;15.32;;;11.70;;
81176;SDS011;74095;48.270;14.200;2024-03-23T02:43:49;16.55;;;13.00;;
81176;SDS011;74095;48.270;14.200;2024-03-23T02:46:15;18.80;;;13.93;;
81176;SDS011;74095;48.270;14.200;2024-03-23T02:48:41;18.35;;;13.35;;
81176;SDS011;74095;48.270;14.200;2024-03-23T02:51:07;17.77;;;14.00;;
81176;SDS011;74095;48.270;14.200;2024-03-23T02:53:33;16.92;;;13.13;;
81176;SDS011;74095;48.270;14.200;2024-03-23T02:55:59;18.55;;;14.52;;
81176;SDS011;74095;48.270;14.200;2024-03-23T02:58:25;21.13;;;15.65;;
81176;SDS011;74095;48.270;14.200;2024-03-23T03:00:51;16.38;;;11.90;;
81176;SDS011;74095;48.270;14.200;2024-03-23T03:03:17;17.13;;;12.30;;
81176;SDS011;74095;48.270;14.200;2024-03-23T03:05:43;18.48;;;14.75;;
81176;SDS011;74095;48.270;14.200;2024-03-23T03:08:08;15.80;;;11.82;;
81176;SDS011;74095;48.270;14.200;2024-03-23T03:10:34;15.05;;;11.57;;
81176;SDS011;74095;48.270;14.200;2024-03-23T03:13:02;14.75;;;11.80;;
81176;SDS011;74095;48.270;14.200;2024-03-23T03:15:28;16.70;;;12.27;;
81176;SDS011;74095;48.270;14.200;2024-03-23T03:17:54;18.65;;;13.35;;
81176;SDS011;74095;48.270;14.200;2024-03-23T03:20:20;18.45;;;13.10;;
81176;SDS011;74095;48.270;14.200;2024-03-23T03:22:47;19.27;;;13.52;;
81176;SDS011;74095;48.270;14.200;2024-03-23T03:25:14;16.85;;;12.13;;
81176;SDS011;74095;48.270;14.200;2024-03-23T03:27:40;16.08;;;12.65;;
81176;SDS011;74095;48.270;14.200;2024-03-23T03:30:06;18.25;;;12.93;;
81176;SDS011;74095;48.270;14.200;2024-03-23T03:32:34;18.50;;;12.60;;
81176;SDS011;74095;48.270;14.200;2024-03-23T03:35:00;17.45;;;13.00;;
81176;SDS011;74095;48.270;14.200;2024-03-23T03:37:26;23.83;;;15.52;;
81176;SDS011;74095;48.270;14.200;2024-03-23T03:39:52;25.80;;;17.17;;
81176;SDS011;74095;48.270;14.200;2024-03-23T03:42:18;24.90;;;17.20;;
81176;SDS011;74095;48.270;14.200;2024-03-23T03:44:44;21.17;;;15.68;;
81176;SDS011;74095;48.270;14.200;2024-03-23T03:47:10;20.85;;;15.23;;
81176;SDS011;74095;48.270;14.200;2024-03-23T03:49:36;24.63;;;16.52;;
81176;SDS011;74095;48.270;14.200;2024-03-23T03:52:02;20.95;;;15.80;;
81176;SDS011;74095;48.270;14.200;2024-03-23T03:54:28;23.42;;;15.73;;
81176;SDS011;74095;48.270;14.200;2024-03-23T03:56:54;20.10;;;13.90;;
81176;SDS011;74095;48.270;14.200;2024-03-23T03:59:20;18.73;;;13.98;;
81176;SDS011;74095;48.270;14.200;2024-03-23T04:01:46;19.73;;;14.43;;
81176;SDS011;74095;48.270;14.200;2024-03-23T04:04:12;22.55;;;15.98;;
81176;SDS011;74095;48.270;14.200;2024-03-23T04:06:39;20.38;;;14.88;;
81176;SDS011;74095;48.270;14.200;2024-03-23T04:09:05;18.55;;;14.65;;
81176;SDS011;74095;48.270;14.200;2024-03-23T04:11:32;20.33;;;15.05;;
81176;SDS011;74095;48.270;14.200;2024-03-23T04:13:58;28.40;;;19.60;;
81176;SDS011;74095;48.270;14.200;2024-03-23T04:16:24;28.38;;;19.92;;
81176;SDS011;74095;48.270;14.200;2024-03-23T04:18:53;21.17;;;15.75;;
81176;SDS011;74095;48.270;14.200;2024-03-23T04:21:20;27.10;;;20.58;;
81176;SDS011;74095;48.270;14.200;2024-03-23T04:23:46;26.45;;;18.60;;
81176;SDS011;74095;48.270;14.200;2024-03-23T04:26:12;27.08;;;19.83;;
81176;SDS011;74095;48.270;14.200;2024-03-23T04:28:38;26.52;;;20.17;;
81176;SDS011;74095;48.270;14.200;2024-03-23T04:31:04;23.38;;;16.58;;
81176;SDS011;74095;48.270;14.200;2024-03-23T04:33:31;19.90;;;14.00;;
81176;SDS011;74095;48.270;14.200;2024-03-23T04:35:56;19.17;;;15.02;;
81176;SDS011;74095;48.270;14.200;2024-03-23T04:38:22;21.92;;;15.80;;
81176;SDS011;74095;48.270;14.200;2024-03-23T04:40:58;19.20;;;14.40;;
81176;SDS011;74095;48.270;14.200;2024-03-23T04:43:25;22.13;;;15.55;;
81176;SDS011;74095;48.270;14.200;2024-03-23T04:45:52;23.45;;;17.05;;
81176;SDS011;74095;48.270;14.200;2024-03-23T04:48:21;29.95;;;20.60;;
81176;SDS011;74095;48.270;14.200;2024-03-23T04:50:54;27.95;;;21.00;;
81176;SDS011;74095;48.270;14.200;2024-03-23T04:53:21;22.00;;;15.65;;
81176;SDS011;74095;48.270;14.200;2024-03-23T04:55:46;21.25;;;15.25;;
81176;SDS011;74095;48.270;14.200;2024-03-23T04:58:12;22.85;;;17.33;;
81176;SDS011;74095;48.270;14.200;2024-03-23T05:00:38;22.85;;;17.38;;
81176;SDS011;74095;48.270;14.200;2024-03-23T05:03:04;20.20;;;13.68;;
81176;SDS011;74095;48.270;14.200;2024-03-23T05:05:30;21.42;;;14.90;;
81176;SDS011;74095;48.270;14.200;2024-03-23T05:07:57;20.17;;;15.23;;
81176;SDS011;74095;48.270;14.200;2024-03-23T05:10:23;21.10;;;15.30;;
81176;SDS011;74095;48.270;14.200;2024-03-23T05:12:49;21.25;;;15.95;;
81176;SDS011;74095;48.270;14.200;2024-03-23T05:15:15;23.98;;;15.93;;
81176;SDS011;74095;48.270;14.200;2024-03-23T05:17:40;18.92;;;13.48;;
81176;SDS011;74095;48.270;14.200;2024-03-23T05:20:06;19.48;;;15.32;;
81176;SDS011;74095;48.270;14.200;2024-03-23T05:22:35;23.75;;;15.93;;
81176;SDS011;74095;48.270;14.200;2024-03-23T05:25:02;21.30;;;15.55;;
81176;SDS011;74095;48.270;14.200;2024-03-23T05:27:31;18.83;;;14.30;;
81176;SDS011;74095;48.270;14.200;2024-03-23T05:29:58;23.67;;;16.90;;
81176;SDS011;74095;48.270;14.200;2024-03-23T05:32:24;18.92;;;13.48;;
81176;SDS011;74095;48.270;14.200;2024-03-23T05:34:51;23.88;;;17.08;;
81176;SDS011;74095;48.270;14.200;2024-03-23T05:37:21;19.85;;;14.95;;
81176;SDS011;74095;48.270;14.200;2024-03-23T05:39:48;19.52;;;14.20;;
81176;SDS011;74095;48.270;14.200;2024-03-23T05:42:17;20.10;;;14.63;;
81176;SDS011;74095;48.270;14.200;2024-03-23T05:44:44;18.38;;;14.02;;
81176;SDS011;74095;48.270;14.200;2024-03-23T05:47:11;17.30;;;11.95;;
81176;SDS011;74095;48.270;14.200;2024-03-23T05:49:38;16.13;;;12.00;;
81176;SDS011;74095;48.270;14.200;2024-03-23T05:52:04;17.20;;;13.02;;
81176;SDS011;74095;48.270;14.200;2024-03-23T05:54:30;17.95;;;12.00;;
81176;SDS011;74095;48.270;14.200;2024-03-23T05:56:56;15.23;;;11.48;;
81176;SDS011;74095;48.270;14.200;2024-03-23T05:59:22;14.38;;;11.75;;
81176;SDS011;74095;48.270;14.200;2024-03-23T06:01:48;16.20;;;12.40;;
81176;SDS011;74095;48.270;14.200;2024-03-23T06:04:14;17.35;;;11.38;;
81176;SDS011;74095;48.270;14.200;2024-03-23T06:06:39;15.70;;;11.48;;
81176;SDS011;74095;48.270;14.200;2024-03-23T06:09:05;15.40;;;11.18;;
81176;SDS011;74095;48.270;14.200;2024-03-23T06:11:31;13.02;;;10.65;;
81176;SDS011;74095;48.270;14.200;2024-03-23T06:13:57;17.75;;;13.07;;
81176;SDS011;74095;48.270;14.200;2024-03-23T06:16:23;16.23;;;12.70;;
81176;SDS011;74095;48.270;14.200;2024-03-23T06:18:50;16.00;;;12.65;;
81176;SDS011;74095;48.270;14.200;2024-03-23T06:21:16;16.17;;;12.60;;
81176;SDS011;74095;48.270;14.200;2024-03-23T06:23:42;18.17;;;13.00;;
81176;SDS011;74095;48.270;14.200;2024-03-23T06:26:08;15.32;;;11.85;;
81176;SDS011;74095;48.270;14.200;2024-03-23T06:28:34;15.38;;;13.35;;
81176;SDS011;74095;48.270;14.200;2024-03-23T06:31:00;20.48;;;16.45;;
81176;SDS011;74095;48.270;14.200;2024-03-23T06:33:26;15.82;;;13.40;;
81176;SDS011;74095;48.270;14.200;2024-03-23T06:35:52;17.40;;;12.10;;
81176;SDS011;74095;48.270;14.200;2024-03-23T06:38:18;16.73;;;13.13;;
81176;SDS011;74095;48.270;14.200;2024-03-23T06:40:44;17.85;;;15.95;;
81176;SDS011;74095;48.270;14.200;2024-03-23T06:43:16;19.45;;;14.73;;
81176;SDS011;74095;48.270;14.200;2024-03-23T06:45:42;20.15;;;14.93;;
81176;SDS011;74095;48.270;14.200;2024-03-23T06:48:08;18.17;;;13.95;;
81176;SDS011;74095;48.270;14.200;2024-03-23T06:50:34;15.07;;;12.88;;
81176;SDS011;74095;48.270;14.200;2024-03-23T06:53:00;16.92;;;14.15;;
81176;SDS011;74095;48.270;14.200;2024-03-23T06:55:27;17.52;;;13.43;;
81176;SDS011;74095;48.270;14.200;2024-03-23T06:57:53;15.52;;;11.13;;
81176;SDS011;74095;48.270;14.200;2024-03-23T07:00:19;22.35;;;18.10;;
81176;SDS011;74095;48.270;14.200;2024-03-23T07:02:45;19.35;;;16.38;;
81176;SDS011;74095;48.270;14.200;2024-03-23T07:05:11;16.70;;;12.95;;
81176;SDS011;74095;48.270;14.200;2024-03-23T07:07:40;16.83;;;12.55;;
81176;SDS011;74095;48.270;14.200;2024-03-23T07:10:06;20.77;;;14.68;;
81176;SDS011;74095;48.270;14.200;2024-03-23T07:12:32;15.40;;;11.15;;
81176;SDS011;74095;48.270;14.200;2024-03-23T07:14:58;15.43;;;12.27;;
81176;SDS011;74095;48.270;14.200;2024-03-23T07:17:24;15.05;;;10.88;;
81176;SDS011;74095;48.270;14.200;2024-03-23T07:19:50;15.13;;;11.27;;
81176;SDS011;74095;48.270;14.200;2024-03-23T07:22:16;15.27;;;10.98;;
81176;SDS011;74095;48.270;14.200;2024-03-23T07:24:42;15.27;;;10.88;;
81176;SDS011;74095;48.270;14.200;2024-03-23T07:27:09;15.32;;;11.35;;
81176;SDS011;74095;48.270;14.200;2024-03-23T07:29:38;15.30;;;11.90;;
81176;SDS011;74095;48.270;14.200;2024-03-23T07:32:04;12.55;;;9.77;;
81176;SDS011;74095;48.270;14.200;2024-03-23T07:34:30;12.13;;;8.82;;
81176;SDS011;74095;48.270;14.200;2024-03-23T07:36:56;14.10;;;10.80;;
81176;SDS011;74095;48.270;14.200;2024-03-23T07:39:22;17.08;;;11.88;;
81176;SDS011;74095;48.270;14.200;2024-03-23T07:41:48;13.93;;;10.80;;
81176;SDS011;74095;48.270;14.200;2024-03-23T07:44:14;15.43;;;11.68;;
81176;SDS011;74095;48.270;14.200;2024-03-23T07:46:40;13.35;;;10.43;;
81176;SDS011;74095;48.270;14.200;2024-03-23T07:49:06;11.20;;;8.48;;
81176;SDS011;74095;48.270;14.200;2024-03-23T07:51:32;13.23;;;11.82;;
81176;SDS011;74095;48.270;14.200;2024-03-23T07:53:59;12.30;;;9.65;;
81176;SDS011;74095;48.270;14.200;2024-03-23T07:56:25;14.45;;;9.88;;
81176;SDS011;74095;48.270;14.200;2024-03-23T07:58:51;11.07;;;9.23;;
81176;SDS011;74095;48.270;14.200;2024-03-23T08:01:17;15.07;;;10.90;;
81176;SDS011;74095;48.270;14.200;2024-03-23T08:03:43;13.77;;;9.70;;
81176;SDS011;74095;48.270;14.200;2024-03-23T08:08:38;11.25;;;9.02;;
81176;SDS011;74095;48.270;14.200;2024-03-23T08:11:04;14.77;;;10.98;;
81176;SDS011;74095;48.270;14.200;2024-03-23T08:13:30;10.15;;;8.05;;
81176;SDS011;74095;48.270;14.200;2024-03-23T08:16:00;11.50;;;9.40;;
81176;SDS011;74095;48.270;14.200;2024-03-23T08:18:26;12.90;;;9.77;;
81176;SDS011;74095;48.270;14.200;2024-03-23T08:21:02;13.13;;;9.30;;
81176;SDS011;74095;48.270;14.200;2024-03-23T08:23:29;10.82;;;8.52;;
81176;SDS011;74095;48.270;14.200;2024-03-23T08:26:03;14.45;;;10.23;;
81176;SDS011;74095;48.270;14.200;2024-03-23T08:28:29;11.27;;;7.65;;
81176;SDS011;74095;48.270;14.200;2024-03-23T08:30:56;12.00;;;9.45;;
81176;SDS011;74095;48.270;14.200;2024-03-23T08:33:22;11.48;;;8.10;;
81176;SDS011;74095;48.270;14.200;2024-03-23T08:35:55;10.60;;;8.38;;
81176;SDS011;74095;48.270;14.200;2024-03-23T08:38:22;10.45;;;9.20;;
81176;SDS011;74095;48.270;14.200;2024-03-23T08:40:58;8.73;;;6.95;;
81176;SDS011;74095;48.270;14.200;2024-03-23T08:43:25;11.18;;;7.15;;
81176;SDS011;74095;48.270;14.200;2024-03-23T08:45:52;8.93;;;7.05;;
81176;SDS011;74095;48.270;14.200;2024-03-23T08:48:19;9.38;;;7.05;;
81176;SDS011;74095;48.270;14.200;2024-03-23T08:50:58;8.80;;;7.38;;
81176;SDS011;74095;48.270;14.200;2024-03-23T08:53:31;8.98;;;7.25;;
81176;SDS011;74095;48.270;14.200;2024-03-23T08:55:58;8.18;;;6.88;;
81176;SDS011;74095;48.270;14.200;2024-03-23T08:58:24;9.18;;;6.80;;
81176;SDS011;74095;48.270;14.200;2024-03-23T09:00:51;7.22;;;6.18;;
81176;SDS011;74095;48.270;14.200;2024-03-23T09:03:17;8.27;;;6.80;;
81176;SDS011;74095;48.270;14.200;2024-03-23T09:05:44;7.78;;;5.30;;
81176;SDS011;74095;48.270;14.200;2024-03-23T09:08:10;8.32;;;5.72;;
81176;SDS011;74095;48.270;14.200;2024-03-23T09:10:39;7.15;;;5.00;;
81176;SDS011;74095;48.270;14.200;2024-03-23T09:13:05;8.02;;;6.93;;
81176;SDS011;74095;48.270;14.200;2024-03-23T09:15:35;8.15;;;6.43;;
81176;SDS011;74095;48.270;14.200;2024-03-23T09:18:02;8.52;;;5.75;;
81176;SDS011;74095;48.270;14.200;2024-03-23T09:20:29;8.48;;;5.43;;
81176;SDS011;74095;48.270;14.200;2024-03-23T09:22:57;5.45;;;4.95;;
81176;SDS011;74095;48.270;14.200;2024-03-23T09:25:23;8.10;;;5.80;;
81176;SDS011;74095;48.270;14.200;2024-03-23T09:27:50;6.85;;;6.15;;
81176;SDS011;74095;48.270;14.200;2024-03-23T09:30:16;5.35;;;4.60;;
81176;SDS011;74095;48.270;14.200;2024-03-23T09:32:43;5.70;;;5.00;;
81176;SDS011;74095;48.270;14.200;2024-03-23T09:35:10;6.82;;;5.30;;
81176;SDS011;74095;48.270;14.200;2024-03-23T09:37:36;7.10;;;4.63;;
81176;SDS011;74095;48.270;14.200;2024-03-23T09:40:05;5.93;;;5.05;;
81176;SDS011;74095;48.270;14.200;2024-03-23T09:42:35;5.10;;;4.30;;
81176;SDS011;74095;48.270;14.200;2024-03-23T09:45:01;6.95;;;4.30;;
81176;SDS011;74095;48.270;14.200;2024-03-23T09:47:28;6.18;;;4.28;;
81176;SDS011;74095;48.270;14.200;2024-03-23T09:49:54;5.53;;;4.07;;
81176;SDS011;74095;48.270;14.200;2024-03-23T09:52:20;4.70;;;4.20;;
81176;SDS011;74095;48.270;14.200;2024-03-23T09:54:46;7.03;;;4.55;;
81176;SDS011;74095;48.270;14.200;2024-03-23T09:57:12;4.70;;;4.00;;
81176;SDS011;74095;48.270;14.200;2024-03-23T09:59:38;7.43;;;4.20;;
81176;SDS011;74095;48.270;14.200;2024-03-23T10:02:04;7.65;;;4.78;;
81176;SDS011;74095;48.270;14.200;2024-03-23T10:04:41;4.65;;;3.70;;
81176;SDS011;74095;48.270;14.200;2024-03-23T10:07:11;8.40;;;4.28;;
81176;SDS011;74095;48.270;14.200;2024-03-23T10:09:37;4.18;;;3.75;;
81176;SDS011;74095;48.270;14.200;2024-03-23T10:12:10;13.25;;;2.75;;
81176;SDS011;74095;48.270;14.200;2024-03-23T10:14:36;7.05;;;1.50;;
81176;SDS011;74095;48.270;14.200;2024-03-23T10:17:11;4.72;;;1.42;;
81176;SDS011;74095;48.270;14.200;2024-03-23T10:19:44;7.18;;;1.65;;
81176;SDS011;74095;48.270;14.200;2024-03-23T10:22:17;4.85;;;1.63;;
81176;SDS011;74095;48.270;14.200;2024-03-23T10:24:47;3.63;;;1.45;;
81176;SDS011;74095;48.270;14.200;2024-03-23T10:27:17;4.45;;;1.88;;
81176;SDS011;74095;48.270;14.200;2024-03-23T10:29:47;2.05;;;1.30;;
81176;SDS011;74095;48.270;14.200;2024-03-23T10:32:14;4.75;;;1.10;;
81176;SDS011;74095;48.270;14.200;2024-03-23T10:34:42;3.70;;;1.02;;
81176;SDS011;74095;48.270;14.200;2024-03-23T10:37:08;3.78;;;0.90;;
81176;SDS011;74095;48.270;14.200;2024-03-23T10:39:38;5.28;;;1.33;;
81176;SDS011;74095;48.270;14.200;2024-03-23T10:42:05;1.25;;;0.90;;
81176;SDS011;74095;48.270;14.200;2024-03-23T10:44:33;1.88;;;1.10;;
81176;SDS011;74095;48.270;14.200;2024-03-23T10:47:03;2.70;;;1.00;;
81176;SDS011;74095;48.270;14.200;2024-03-23T10:49:30;2.10;;;0.90;;
81176;SDS011;74095;48.270;14.200;2024-03-23T10:52:00;1.75;;;0.80;;
81176;SDS011;74095;48.270;14.200;2024-03-23T10:54:30;0.93;;;0.70;;
81176;SDS011;74095;48.270;14.200;2024-03-23T10:57:02;2.55;;;1.00;;
81176;SDS011;74095;48.270;14.200;2024-03-23T10:59:31;1.80;;;0.80;;
81176;SDS011;74095;48.270;14.200;2024-03-23T11:01:59;1.42;;;0.80;;
81176;SDS011;74095;48.270;14.200;2024-03-23T11:04:32;1.45;;;0.80;;
81176;SDS011;74095;48.270;14.200;2024-03-23T11:10:02;1.50;;;0.80;;
81176;SDS011;74095;48.270;14.200;2024-03-23T11:15:49;1.50;;;0.60;;
81176;SDS011;74095;48.270;14.200;2024-03-23T11:18:20;1.10;;;0.80;;
81176;SDS011;74095;48.270;14.200;2024-03-23T11:20:46;1.20;;;0.63;;
81176;SDS011;74095;48.270;14.200;2024-03-23T11:23:26;1.35;;;0.70;;
81176;SDS011;74095;48.270;14.200;2024-03-23T11:25:53;3.47;;;0.80;;
81176;SDS011;74095;48.270;14.200;2024-03-23T11:28:19;1.77;;;0.82;;
81176;SDS011;74095;48.270;14.200;2024-03-23T11:30:45;4.72;;;0.93;;
81176;SDS011;74095;48.270;14.200;2024-03-23T11:33:10;2.20;;;0.80;;
81176;SDS011;74095;48.270;14.200;2024-03-23T11:35:38;1.40;;;1.00;;
81176;SDS011;74095;48.270;14.200;2024-03-23T11:38:15;2.20;;;0.82;;
81176;SDS011;74095;48.270;14.200;2024-03-23T11:40:46;1.63;;;1.10;;
81176;SDS011;74095;48.270;14.200;2024-03-23T11:43:14;1.42;;;1.10;;
81176;SDS011;74095;48.270;14.200;2024-03-23T11:45:43;1.48;;;0.95;;
81176;SDS011;74095;48.270;14.200;2024-03-23T11:48:09;1.42;;;1.00;;
81176;SDS011;74095;48.270;14.200;2024-03-23T11:50:40;1.83;;;0.90;;
81176;SDS011;74095;48.270;14.200;2024-03-23T11:53:20;1.52;;;1.00;;
81176;SDS011;74095;48.270;14.200;2024-03-23T11:55:48;1.10;;;1.00;;
81176;SDS011;74095;48.270;14.200;2024-03-23T11:58:22;1.25;;;1.10;;
81176;SDS011;74095;48.270;14.200;2024-03-23T12:00:58;2.35;;;1.50;;
81176;SDS011;74095;48.270;14.200;2024-03-23T12:03:27;2.30;;;1.33;;
81176;SDS011;74095;48.270;14.200;2024-03-23T12:05:57;2.88;;;1.40;;
81176;SDS011;74095;48.270;14.200;2024-03-23T12:08:29;3.70;;;1.38;;
81176;SDS011;74095;48.270;14.200;2024-03-23T12:11:09;1.83;;;1.20;;
81176;SDS011;74095;48.270;14.200;2024-03-23T12:13:40;2.10;;;1.40;;
81176;SDS011;74095;48.270;14.200;2024-03-23T12:16:09;2.47;;;1.55;;
81176;SDS011;74095;48.270;14.200;2024-03-23T12:18:36;1.75;;;1.60;;
81176;SDS011;74095;48.270;14.200;2024-03-23T12:21:03;3.90;;;1.70;;
81176;SDS011;74095;48.270;14.200;2024-03-23T12:23:29;2.40;;;1.88;;
81176;SDS011;74095;48.270;14.200;2024-03-23T12:25:56;3.05;;;1.95;;
81176;SDS011;74095;48.270;14.200;2024-03-23T12:28:21;2.10;;;1.80;;
81176;SDS011;74095;48.270;14.200;2024-03-23T12:30:47;2.47;;;1.80;;
81176;SDS011;74095;48.270;14.200;2024-03-23T12:33:13;2.70;;;2.03;;
81176;SDS011;74095;48.270;14.200;2024-03-23T12:35:39;2.03;;;1.42;;
81176;SDS011;74095;48.270;14.200;2024-03-23T12:38:05;2.83;;;1.80;;
81176;SDS011;74095;48.270;14.200;2024-03-23T12:40:31;2.40;;;1.70;;
81176;SDS011;74095;48.270;14.200;2024-03-23T12:42:57;4.40;;;2.15;;
81176;SDS011;74095;48.270;14.200;2024-03-23T12:45:23;2.53;;;1.60;;
81176;SDS011;74095;48.270;14.200;2024-03-23T12:47:48;1.90;;;1.70;;
81176;SDS011;74095;48.270;14.200;2024-03-23T12:50:14;1.70;;;1.27;;
81176;SDS011;74095;48.270;14.200;2024-03-23T12:52:40;1.92;;;1.60;;
81176;SDS011;74095;48.270;14.200;2024-03-23T12:55:07;1.67;;;1.42;;
81176;SDS011;74095;48.270;14.200;2024-03-23T12:57:33;3.65;;;1.60;;
81176;SDS011;74095;48.270;14.200;2024-03-23T12:59:59;1.85;;;1.60;;
81176;SDS011;74095;48.270;14.200;2024-03-23T13:02:25;2.70;;;1.60;;
81176;SDS011;74095;48.270;14.200;2024-03-23T13:04:52;1.48;;;1.02;;
81176;SDS011;74095;48.270;14.200;2024-03-23T13:07:19;1.35;;;1.02;;
81176;SDS011;74095;48.270;14.200;2024-03-23T13:09:46;1.73;;;1.10;;
81176;SDS011;74095;48.270;14.200;2024-03-23T13:12:12;1.80;;;1.25;;
81176;SDS011;74095;48.270;14.200;2024-03-23T13:14:38;2.53;;;1.27;;
81176;SDS011;74095;48.270;14.200;2024-03-23T13:17:05;1.20;;;1.00;;
81176;SDS011;74095;48.270;14.200;2024-03-23T13:19:31;1.75;;;1.15;;
81176;SDS011;74095;48.270;14.200;2024-03-23T13:21:58;1.63;;;1.50;;
81176;SDS011;74095;48.270;14.200;2024-03-23T13:24:25;1.25;;;0.93;;
81176;SDS011;74095;48.270;14.200;2024-03-23T13:26:53;1.83;;;1.10;;
81176;SDS011;74095;48.270;14.200;2024-03-23T13:29:19;1.50;;;0.90;;
81176;SDS011;74095;48.270;14.200;2024-03-23T13:31:49;1.20;;;0.88;;
81176;SDS011;74095;48.270;14.200;2024-03-23T13:34:16;2.25;;;0.80;;
81176;SDS011;74095;48.270;14.200;2024-03-23T13:36:42;0.90;;;0.63;;
81176;SDS011;74095;48.270;14.200;2024-03-23T13:39:09;0.98;;;0.80;;
81176;SDS011;74095;48.270;14.200;2024-03-23T13:41:41;1.58;;;0.50;;
81176;SDS011;74095;48.270;14.200;2024-03-23T13:44:11;0.80;;;0.70;;
81176;SDS011;74095;48.270;14.200;2024-03-23T13:46:41;0.60;;;0.60;;
81176;SDS011;74095;48.270;14.200;2024-03-23T13:49:27;1.00;;;0.65;;
81176;SDS011;74095;48.270;14.200;2024-03-23T13:51:55;1.95;;;0.50;;
81176;SDS011;74095;48.270;14.200;2024-03-23T13:54:23;0.90;;;0.60;;
81176;SDS011;74095;48.270;14.200;2024-03-23T13:56:50;1.10;;;0.60;;
81176;SDS011;74095;48.270;14.200;2024-03-23T13:59:22;1.27;;;0.90;;
81176;SDS011;74095;48.270;14.200;2024-03-23T14:01:49;0.77;;;0.50;;
81176;SDS011;74095;48.270;14.200;2024-03-23T14:04:19;1.17;;;0.60;;
81176;SDS011;74095;48.270;14.200;2024-03-23T14:06:46;0.70;;;0.60;;
81176;SDS011;74095;48.270;14.200;2024-03-23T14:09:12;0.98;;;0.77;;
81176;SDS011;74095;48.270;14.200;2024-03-23T14:11:39;1.35;;;1.23;;
81176;SDS011;74095;48.270;14.200;2024-03-23T14:14:07;1.50;;;1.10;;
81176;SDS011;74095;48.270;14.200;2024-03-23T14:16:33;1.25;;;1.10;;
81176;SDS011;74095;48.270;14.200;2024-03-23T14:18:59;2.08;;;1.15;;
81176;SDS011;74095;48.270;14.200;2024-03-23T14:21:25;2.15;;;1.20;;
81176;SDS011;74095;48.270;14.200;2024-03-23T14:23:51;1.95;;;1.20;;
81176;SDS011;74095;48.270;14.200;2024-03-23T14:26:17;2.75;;;1.40;;
81176;SDS011;74095;48.270;14.200;2024-03-23T14:28:43;1.15;;;0.90;;
81176;SDS011;74095;48.270;14.200;2024-03-23T14:31:09;1.10;;;0.73;;
81176;SDS011;74095;48.270;14.200;2024-03-23T14:33:37;1.45;;;1.10;;
81176;SDS011;74095;48.270;14.200;2024-03-23T14:36:07;1.58;;;1.45;;
81176;SDS011;74095;48.270;14.200;2024-03-23T14:38:33;1.20;;;1.10;;
81176;SDS011;74095;48.270;14.200;2024-03-23T14:41:00;2.67;;;1.33;;
81176;SDS011;74095;48.270;14.200;2024-03-23T14:43:27;3.25;;;1.75;;
81176;SDS011;74095;48.270;14.200;2024-03-23T14:46:15;1.85;;;1.63;;
81176;SDS011;74095;48.270;14.200;2024-03-23T14:48:42;8.23;;;5.72;;
81176;SDS011;74095;48.270;14.200;2024-03-23T14:51:10;3.20;;;2.33;;
81176;SDS011;74095;48.270;14.200;2024-03-23T14:53:37;3.78;;;2.85;;
81176;SDS011;74095;48.270;14.200;2024-03-23T14:56:06;4.55;;;2.45;;
81176;SDS011;74095;48.270;14.200;2024-03-23T14:58:33;7.30;;;2.33;;
81176;SDS011;74095;48.270;14.200;2024-03-23T15:01:03;5.10;;;3.03;;
81176;SDS011;74095;48.270;14.200;2024-03-23T15:03:30;4.35;;;2.50;;
81176;SDS011;74095;48.270;14.200;2024-03-23T15:05:56;3.08;;;1.80;;
81176;SDS011;74095;48.270;14.200;2024-03-23T15:08:23;1.95;;;1.20;;
81176;SDS011;74095;48.270;14.200;2024-03-23T15:10:49;2.00;;;1.80;;
81176;SDS011;74095;48.270;14.200;2024-03-23T15:13:15;2.63;;;2.00;;
81176;SDS011;74095;48.270;14.200;2024-03-23T15:15:42;3.08;;;2.15;;
81176;SDS011;74095;48.270;14.200;2024-03-23T15:18:14;2.35;;;1.73;;
81176;SDS011;74095;48.270;14.200;2024-03-23T15:20:41;2.05;;;1.85;;
81176;SDS011;74095;48.270;14.200;2024-03-23T15:23:07;2.85;;;1.88;;